Time;durP1;ratioP1;P1;durP2;ratioP2;P2;SDS_P1;SDS_P2;PMS_P1;PMS_P2;Temp;Humidity;BMP_temperature;BMP_pressure;BME280_temperature;BME280_humidity;BME280_pressure;Samples;Min_cycle;Max_cycle;Signal;HPM_P1;HPM_P2
2022/02/23 00:00:42;;;;;;;21.75;9.23;;;;;;;5.11;68.12;99176.41;1640625;85;20995;-90
2022/02/23 00:03:10;;;;;;;17.67;8.65;;;;;;;5.02;69.11;99179.03;1694355;83;21138;-89
2022/02/23 00:05:38;;;;;;;23.45;9.20;;;;;;;4.98;69.82;99180.74;1706583;84;20988;-88
2022/02/23 00:08:05;;;;;;;20.37;9.98;;;;;;;4.95;69.64;99182.91;1701983;80;21589;-89
2022/02/23 00:10:32;;;;;;;22.48;8.98;;;;;;;4.92;70.28;99180.31;1683809;85;21087;-90
2022/02/23 00:12:59;;;;;;;21.93;10.23;;;;;;;4.90;71.47;99177.31;1713827;83;21551;-88
2022/02/23 00:15:25;;;;;;;23.30;10.25;;;;;;;4.85;69.06;99180.31;1714600;84;21024;-89
2022/02/23 00:17:54;;;;;;;24.12;10.75;;;;;;;4.79;71.95;99169.58;1714698;84;20995;-86
2022/02/23 00:20:20;;;;;;;18.60;9.48;;;;;;;4.76;72.35;99176.89;1718076;84;21050;-85
2022/02/23 00:22:47;;;;;;;26.25;10.20;;;;;;;4.70;68.25;99176.89;1691995;82;21187;-87
2022/02/23 00:25:14;;;;;;;18.30;9.80;;;;;;;4.65;73.15;99186.76;1635411;88;21044;-88
2022/02/23 00:27:40;;;;;;;19.25;9.43;;;;;;;4.61;71.48;99180.74;1623769;87;20991;-90
2022/02/23 00:30:08;;;;;;;19.92;9.38;;;;;;;4.58;72.76;99180.32;1631506;87;21030;-88
2022/02/23 00:32:34;;;;;;;23.45;9.78;;;;;;;4.57;69.90;99185.46;1617553;88;21046;-88
2022/02/23 00:35:01;;;;;;;23.27;9.93;;;;;;;4.54;72.41;99181.18;1630076;87;21565;-89
2022/02/23 00:37:27;;;;;;;21.40;9.88;;;;;;;4.52;72.46;99182.90;1635346;88;21072;-90
2022/02/23 00:39:54;;;;;;;20.68;9.93;;;;;;;4.53;74.31;99183.75;1630189;87;21052;-89
2022/02/23 00:42:21;;;;;;;24.02;10.65;;;;;;;4.54;73.90;99181.18;1635534;88;21058;-87
2022/02/23 00:44:47;;;;;;;24.07;10.43;;;;;;;4.56;73.95;99178.61;1628198;88;21046;-88
2022/02/23 00:47:14;;;;;;;23.65;9.85;;;;;;;4.39;73.82;99148.98;1635716;88;21024;-86
2022/02/23 00:49:40;;;;;;;25.70;9.55;;;;;;;4.64;73.89;99178.63;1619643;87;21020;-88
2022/02/23 00:52:07;;;;;;;18.48;8.25;;;;;;;4.67;74.88;99185.89;1630339;87;21558;-88
2022/02/23 00:54:34;;;;;;;18.30;8.65;;;;;;;4.70;71.99;99182.05;1635459;87;21015;-87
2022/02/23 00:57:03;;;;;;;22.37;8.60;;;;;;;4.73;73.81;99186.33;1669335;84;21087;-88
2022/02/23 00:59:30;;;;;;;21.60;8.88;;;;;;;4.76;74.36;99183.33;1627586;82;21103;-89
2022/02/23 01:01:56;;;;;;;19.07;10.00;;;;;;;4.84;74.92;99185.05;1644594;86;21062;-87
2022/02/23 01:04:25;;;;;;;19.12;8.20;;;;;;;4.87;73.96;99178.16;1627230;87;21075;-89
2022/02/23 01:06:51;;;;;;;17.23;7.37;;;;;;;4.90;73.56;99181.19;1648432;82;20976;-89
2022/02/23 01:09:18;;;;;;;17.07;8.38;;;;;;;4.95;73.24;99182.91;1641386;87;21055;-90
2022/02/23 01:11:45;;;;;;;22.00;8.93;;;;;;;4.97;73.03;99179.02;1647288;86;21072;-89
2022/02/23 01:14:12;;;;;;;24.90;11.48;;;;;;;4.96;72.68;99182.02;1654560;86;21054;-90
2022/02/23 01:16:39;;;;;;;25.50;11.95;;;;;;;4.96;72.57;99176.02;1681014;82;21088;-90
2022/02/23 01:19:06;;;;;;;26.20;12.50;;;;;;;4.95;73.06;99168.73;1681991;85;21366;-88
2022/02/23 01:21:33;;;;;;;23.85;11.05;;;;;;;4.97;72.98;99170.87;1682777;82;21167;-88
2022/02/23 01:24:01;;;;;;;17.67;8.60;;;;;;;4.97;72.81;99164.44;1706571;82;21117;-87
2022/02/23 01:26:28;;;;;;;19.67;8.30;;;;;;;4.97;72.28;99167.01;1725843;80;21083;-89
2022/02/23 01:28:55;;;;;;;20.92;8.28;;;;;;;4.96;70.98;99169.58;1702131;83;21012;-89
2022/02/23 01:31:22;;;;;;;17.02;8.13;;;;;;;4.90;69.83;99170.87;1709743;84;21078;-91
2022/02/23 01:33:48;;;;;;;18.50;8.55;;;;;;;4.82;70.60;99179.90;1655087;80;21055;-91
2022/02/23 01:36:15;;;;;;;22.37;9.73;;;;;;;4.77;70.80;99181.60;1642946;87;21144;-89
2022/02/23 01:38:42;;;;;;;19.45;8.65;;;;;;;4.67;71.13;99168.30;1673199;85;21115;-91
2022/02/23 01:41:09;;;;;;;21.42;9.43;;;;;;;4.69;71.55;99184.17;1680359;85;21574;-89
2022/02/23 01:43:35;;;;;;;19.95;8.58;;;;;;;4.67;71.52;99195.34;1679920;85;21039;-89
2022/02/23 01:46:02;;;;;;;18.48;8.58;;;;;;;4.60;71.34;99182.91;1680351;85;21067;-90
2022/02/23 01:48:28;;;;;;;19.37;8.33;;;;;;;4.57;71.90;99186.75;1670411;85;21099;-90
2022/02/23 01:50:55;;;;;;;22.07;8.65;;;;;;;4.54;71.04;99199.20;1671323;85;21043;-90
2022/02/23 01:53:22;;;;;;;18.67;9.05;;;;;;;4.52;71.96;99200.92;1672836;85;21491;-90
2022/02/23 01:55:49;;;;;;;21.90;9.68;;;;;;;4.50;72.55;99203.92;1652831;87;20987;-90
2022/02/23 01:58:15;;;;;;;22.45;8.60;;;;;;;4.49;72.80;99206.05;1658517;85;21008;-89
2022/02/23 02:00:42;;;;;;;15.25;7.97;;;;;;;4.47;72.71;99201.33;1680654;85;21139;-90
2022/02/23 02:03:10;;;;;;;17.25;7.58;;;;;;;4.46;71.54;99198.34;1677910;85;21484;-89
2022/02/23 02:05:36;;;;;;;17.20;7.35;;;;;;;4.43;71.13;99189.75;1725387;83;21074;-88
2022/02/23 02:08:03;;;;;;;16.70;6.83;;;;;;;4.41;72.06;99184.59;1714410;82;21588;-88
2022/02/23 02:10:30;;;;;;;21.95;7.05;;;;;;;4.42;72.18;99174.74;1752231;81;21077;-89
2022/02/23 02:12:56;;;;;;;23.10;7.97;;;;;;;4.46;71.65;99185.91;1760101;80;21045;-89
2022/02/23 02:15:23;;;;;;;16.93;7.33;;;;;;;4.46;73.00;99198.34;1761954;81;21077;-89
2022/02/23 02:17:50;;;;;;;16.30;7.50;;;;;;;4.50;72.59;99203.07;1745844;80;21052;-86
2022/02/23 02:20:17;;;;;;;15.32;7.92;;;;;;;4.51;72.28;99201.77;1760018;81;20995;-88
2022/02/23 02:22:43;;;;;;;21.73;8.63;;;;;;;4.50;74.24;99210.80;1762289;81;21081;-88
2022/02/23 02:25:10;;;;;;;19.95;7.92;;;;;;;4.53;72.92;99219.79;1762271;80;21023;-90
2022/02/23 02:27:37;;;;;;;16.67;8.78;;;;;;;4.49;73.56;99218.08;1761979;80;21055;-90
2022/02/23 02:30:05;;;;;;;22.75;10.03;;;;;;;4.49;73.87;99227.08;1740948;80;21024;-89
2022/02/23 02:32:32;;;;;;;21.07;9.10;;;;;;;4.47;74.90;99232.22;1735263;81;21091;-86
2022/02/23 02:34:59;;;;;;;20.40;9.53;;;;;;;4.49;73.82;99243.38;1735501;81;21027;-86
2022/02/23 02:37:26;;;;;;;28.10;9.50;;;;;;;4.50;72.99;99238.68;1735091;81;21100;-86
2022/02/23 02:39:52;;;;;;;21.00;9.28;;;;;;;4.49;73.18;99246.39;1735312;81;21048;-86
2022/02/23 02:42:19;;;;;;;22.93;9.75;;;;;;;4.47;73.62;99249.39;1683461;81;21106;-89
2022/02/23 02:44:46;;;;;;;23.27;10.05;;;;;;;4.43;73.41;99245.95;1680980;84;21023;-89
2022/02/23 02:47:13;;;;;;;22.10;9.55;;;;;;;4.46;74.73;99251.55;1667056;81;21180;-90
2022/02/23 02:49:40;;;;;;;21.33;9.45;;;;;;;4.46;74.79;99264.42;1654449;85;21055;-87
2022/02/23 02:52:07;;;;;;;21.73;10.15;;;;;;;4.46;73.92;99270.86;1673957;86;21047;-88
2022/02/23 02:54:34;;;;;;;26.27;10.25;;;;;;;4.42;73.59;99269.98;1686955;85;21018;-90
2022/02/23 02:57:00;;;;;;;23.10;10.23;;;;;;;4.38;74.00;99274.27;1673625;81;21061;-89
2022/02/23 02:59:27;;;;;;;23.95;10.13;;;;;;;4.35;76.41;99267.80;1666497;84;21043;-90
2022/02/23 03:01:53;;;;;;;23.38;9.70;;;;;;;4.32;75.60;99273.40;1665037;86;20993;-89
2022/02/23 03:04:20;;;;;;;22.90;10.60;;;;;;;4.31;75.56;99266.52;1658040;86;21537;-88
2022/02/23 03:06:46;;;;;;;32.08;13.45;;;;;;;4.33;76.30;99260.94;1671605;86;21083;-90
2022/02/23 03:09:13;;;;;;;32.40;11.83;;;;;;;4.35;73.68;99265.23;1678215;84;21058;-88
2022/02/23 03:11:39;;;;;;;27.82;12.23;;;;;;;4.35;73.91;99266.52;1672094;86;21036;-88
2022/02/23 03:14:06;;;;;;;26.50;11.28;;;;;;;4.35;73.71;99265.23;1663035;86;21579;-88
2022/02/23 03:16:32;;;;;;;24.65;11.08;;;;;;;4.38;73.56;99266.98;1647135;86;21041;-88
2022/02/23 03:18:59;;;;;;;22.73;8.93;;;;;;;4.36;75.44;99264.83;1647179;86;21032;-88
2022/02/23 03:21:25;;;;;;;23.02;11.03;;;;;;;4.40;74.45;99265.27;1664220;86;21067;-89
2022/02/23 03:23:52;;;;;;;20.08;11.10;;;;;;;4.39;75.94;99269.97;1692807;84;21011;-89
2022/02/23 03:26:18;;;;;;;22.02;10.23;;;;;;;4.43;75.60;99265.25;1674571;86;21045;-88
2022/02/23 03:28:45;;;;;;;23.27;9.25;;;;;;;4.49;75.75;99270.41;1674203;86;21072;-89
2022/02/23 03:31:11;;;;;;;19.82;9.98;;;;;;;4.49;75.71;99271.70;1674083;86;21039;-90
2022/02/23 03:33:46;;;;;;;20.25;9.93;;;;;;;4.52;74.98;99270.44;1655121;86;20988;-89
2022/02/23 03:36:17;;;;;;;23.90;11.75;;;;;;;4.56;75.49;99271.31;1657899;85;21209;-88
2022/02/23 03:38:46;;;;;;;19.80;10.68;;;;;;;4.62;75.06;99275.62;1647183;84;21110;-89
2022/02/23 03:41:14;;;;;;;21.15;11.28;;;;;;;4.62;75.87;99274.33;1747444;81;21038;-89
2022/02/23 03:43:42;;;;;;;22.20;10.70;;;;;;;4.64;76.15;99268.75;1667355;79;21122;-89
2022/02/23 03:46:08;;;;;;;18.92;9.93;;;;;;;4.64;75.81;99266.17;1672315;83;21139;-86
2022/02/23 03:48:36;;;;;;;17.62;8.60;;;;;;;4.64;75.07;99265.73;1693511;84;21123;-89
2022/02/23 03:51:03;;;;;;;17.85;8.40;;;;;;;4.64;74.04;99260.59;1680402;82;21069;-89
2022/02/23 03:53:29;;;;;;;17.92;8.50;;;;;;;4.62;73.65;99255.02;1680549;85;20990;-87
2022/02/23 03:55:56;;;;;;;19.07;8.43;;;;;;;4.59;74.63;99253.27;1680541;85;21018;-87
2022/02/23 03:58:22;;;;;;;18.30;6.67;;;;;;;4.58;75.58;99260.14;1680600;85;21022;-88
2022/02/23 04:00:50;;;;;;;13.50;7.35;;;;;;;4.54;75.21;99254.56;1680759;85;22237;-87
2022/02/23 04:03:17;;;;;;;13.13;6.97;;;;;;;4.53;77.23;99264.85;1692476;80;21036;-90
2022/02/23 04:05:44;;;;;;;17.25;6.85;;;;;;;4.55;75.72;99261.84;1796066;80;20971;-89
2022/02/23 04:08:11;;;;;;;16.00;7.15;;;;;;;4.49;77.70;99266.55;1796088;80;21026;-87
2022/02/23 04:10:38;;;;;;;14.00;6.97;;;;;;;4.51;77.42;99268.70;1796191;80;20986;-89
2022/02/23 04:13:05;;;;;;;13.68;7.12;;;;;;;4.54;76.85;99271.30;1766953;80;21048;-88
2022/02/23 04:15:31;;;;;;;17.05;7.78;;;;;;;4.53;78.39;99270.85;1764471;80;21113;-88
2022/02/23 04:17:58;;;;;;;17.02;8.63;;;;;;;4.52;78.26;99266.58;1761809;80;21046;-89
2022/02/23 04:20:25;;;;;;;19.02;8.65;;;;;;;4.50;78.50;99267.00;1763161;81;21584;-89
2022/02/23 04:22:52;;;;;;;19.92;8.30;;;;;;;4.49;78.85;99269.13;1744335;80;21186;-88
2022/02/23 04:25:19;;;;;;;16.40;8.20;;;;;;;4.48;78.87;99265.28;1738914;82;21069;-90
2022/02/23 04:27:45;;;;;;;18.25;7.75;;;;;;;4.47;78.60;99266.98;1739060;82;21014;-84
2022/02/23 04:30:12;;;;;;;14.47;7.40;;;;;;;4.47;78.47;99263.55;1739115;82;21545;-90
2022/02/23 04:32:39;;;;;;;12.60;7.40;;;;;;;4.46;78.66;99260.13;1739197;82;21093;-91
2022/02/23 04:35:07;;;;;;;15.08;7.60;;;;;;;4.49;77.88;99255.41;1733086;80;21117;-87
2022/02/23 04:37:33;;;;;;;16.42;7.70;;;;;;;4.44;78.66;99258.41;1733926;82;20995;-87
2022/02/23 04:40:00;;;;;;;14.30;7.40;;;;;;;4.41;79.16;99255.38;1734091;82;21011;-88
2022/02/23 04:42:28;;;;;;;12.43;6.78;;;;;;;4.43;79.75;99251.53;1734526;82;20963;-87
2022/02/23 04:45:00;;;;;;;12.73;6.83;;;;;;;4.43;79.03;99247.23;1740309;81;21158;-87
2022/02/23 04:47:43;;;;;;;13.80;6.67;;;;;;;4.45;78.87;99250.67;1735719;79;21042;-84
2022/02/23 04:50:10;;;;;;;15.05;7.12;;;;;;;4.43;79.21;99238.66;1741592;82;21498;-88
2022/02/23 04:52:37;;;;;;;17.57;7.00;;;;;;;4.42;79.14;99247.22;1741130;82;21022;-88
2022/02/23 04:55:05;;;;;;;16.17;6.87;;;;;;;4.38;79.51;99243.38;1682580;78;21636;-88
2022/02/23 04:57:31;;;;;;;13.38;7.05;;;;;;;4.37;78.85;99239.50;1679726;85;21075;-89
2022/02/23 04:59:58;;;;;;;16.73;6.70;;;;;;;4.31;79.75;99239.05;1656268;85;21035;-88
2022/02/23 05:02:25;;;;;;;16.40;7.80;;;;;;;4.26;79.47;99239.48;1679191;85;21014;-88
2022/02/23 05:04:51;;;;;;;15.65;7.20;;;;;;;4.20;80.19;99243.34;1679732;85;21542;-87
2022/02/23 05:07:18;;;;;;;13.62;6.72;;;;;;;4.13;80.54;99244.16;1679863;85;21067;-88
2022/02/23 05:09:45;;;;;;;14.90;6.75;;;;;;;4.06;79.18;99244.58;1681035;81;21091;-87
2022/02/23 05:12:12;;;;;;;12.70;6.58;;;;;;;4.02;79.98;99248.39;1645856;87;21085;-83
2022/02/23 05:14:39;;;;;;;26.60;7.33;;;;;;;3.99;79.36;99250.54;1645649;84;21060;-82
2022/02/23 05:17:06;;;;;;;14.93;6.75;;;;;;;3.96;79.93;99256.97;1659010;82;21418;-83
2022/02/23 05:19:34;;;;;;;13.68;6.65;;;;;;;3.90;81.25;99262.95;1711278;81;21192;-82
2022/02/23 05:22:02;;;;;;;20.88;7.25;;;;;;;3.88;81.82;99267.23;1694152;83;21193;-82
2022/02/23 05:24:29;;;;;;;15.30;6.47;;;;;;;3.88;81.11;99274.06;1706735;82;21437;-87
2022/02/23 05:26:57;;;;;;;16.45;8.08;;;;;;;3.85;80.81;99267.20;1712602;83;21047;-84
2022/02/23 05:29:25;;;;;;;18.77;8.35;;;;;;;3.82;81.32;99282.63;1736729;83;21058;-88
2022/02/23 05:31:53;;;;;;;19.12;9.13;;;;;;;3.77;81.97;99284.30;1734458;80;21087;-88
2022/02/23 05:34:20;;;;;;;19.32;8.85;;;;;;;3.78;80.26;99287.33;1719670;82;21065;-85
2022/02/23 05:36:47;;;;;;;15.80;8.28;;;;;;;3.73;80.66;99289.00;1645746;80;21092;-87
2022/02/23 05:39:14;;;;;;;15.55;7.58;;;;;;;3.67;81.46;99296.25;1599768;89;21094;-88
2022/02/23 05:41:41;;;;;;;14.15;7.50;;;;;;;3.65;81.22;99303.53;1615308;84;22623;-89
2022/02/23 05:44:08;;;;;;;16.55;7.45;;;;;;;3.60;82.52;99302.19;1660931;86;21022;-86
2022/02/23 05:46:35;;;;;;;15.03;8.00;;;;;;;3.58;82.69;99302.20;1670135;85;21062;-83
2022/02/23 05:49:03;;;;;;;19.60;8.08;;;;;;;3.59;82.26;99308.20;1755975;79;21083;-83
2022/02/23 05:51:34;;;;;;;17.27;8.45;;;;;;;3.62;81.69;99303.48;1778737;81;21038;-85
2022/02/23 05:54:02;;;;;;;20.02;8.98;;;;;;;3.66;81.33;99318.97;1744558;79;21532;-83
2022/02/23 05:56:30;;;;;;;13.28;6.95;;;;;;;3.69;80.34;99316.40;1700298;80;21098;-81
2022/02/23 05:58:58;;;;;;;14.98;7.45;;;;;;;3.74;81.14;99321.56;1693618;80;21033;-83
2022/02/23 06:01:25;;;;;;;14.43;7.22;;;;;;;3.76;82.57;99322.03;1693779;84;21045;-83
2022/02/23 06:03:52;;;;;;;17.25;7.12;;;;;;;3.82;81.56;99319.92;1693768;84;21001;-83
2022/02/23 06:06:19;;;;;;;16.17;7.75;;;;;;;3.85;81.79;99328.07;1655467;87;21087;-86
2022/02/23 06:08:45;;;;;;;17.10;8.03;;;;;;;3.90;80.84;99331.52;1672668;85;21070;-88
2022/02/23 06:11:13;;;;;;;14.05;8.03;;;;;;;3.92;81.21;99325.95;1674131;85;21040;-89
2022/02/23 06:13:41;;;;;;;17.55;9.18;;;;;;;3.94;80.53;99326.84;1692845;82;21072;-91
2022/02/23 06:16:08;;;;;;;21.12;8.70;;;;;;;3.93;80.71;99334.97;1720791;81;21073;-91
2022/02/23 06:18:35;;;;;;;18.52;9.05;;;;;;;3.96;80.95;99330.29;1681150;77;21214;-89
2022/02/23 06:21:02;;;;;;;16.57;9.18;;;;;;;3.99;81.00;99336.72;1668224;85;21531;-90
2022/02/23 06:23:29;;;;;;;18.42;9.70;;;;;;;4.06;80.42;99347.89;1682720;85;21008;-90
2022/02/23 06:25:56;;;;;;;18.80;8.90;;;;;;;4.13;79.73;99350.94;1705708;84;21087;-89
2022/02/23 06:28:22;;;;;;;17.95;8.33;;;;;;;4.21;80.09;99349.70;1705751;84;21059;-89
2022/02/23 06:30:49;;;;;;;17.67;7.33;;;;;;;4.30;80.25;99351.03;1705882;84;21035;-88
2022/02/23 06:33:21;;;;;;;16.77;8.55;;;;;;;4.39;79.76;99361.35;1706681;84;21006;-89
2022/02/23 06:35:45;;;;;;;21.70;8.50;;;;;;;4.44;80.09;99357.53;1711307;81;21127;-88
2022/02/23 06:38:12;;;;;;;23.80;8.83;;;;;;;4.54;80.30;99369.58;1714733;84;21076;-89
2022/02/23 06:40:42;;;;;;;17.02;8.68;;;;;;;4.58;80.04;99363.14;1711431;80;21108;-89
2022/02/23 06:43:09;;;;;;;14.95;7.50;;;;;;;4.64;80.19;99371.33;1714080;80;22200;-89
2022/02/23 06:45:36;;;;;;;14.70;8.58;;;;;;;4.71;79.97;99374.33;1679265;84;21062;-90
2022/02/23 06:48:02;;;;;;;19.90;8.70;;;;;;;4.76;80.08;99370.50;1659288;84;21067;-90
2022/02/23 06:50:29;;;;;;;16.55;8.83;;;;;;;4.84;79.86;99375.24;1684714;84;21380;-89
2022/02/23 06:52:56;;;;;;;18.87;8.90;;;;;;;4.93;79.62;99374.39;1712357;83;21079;-89
2022/02/23 06:55:23;;;;;;;18.87;10.20;;;;;;;4.97;79.24;99378.30;1708651;81;21078;-89
2022/02/23 06:57:50;;;;;;;16.82;8.53;;;;;;;5.03;78.86;99373.55;1744746;82;21511;-87
2022/02/23 07:00:17;;;;;;;20.65;7.53;;;;;;;5.09;78.52;99380.44;1744938;82;21175;-90
2022/02/23 07:02:44;;;;;;;16.60;8.35;;;;;;;5.15;78.55;99385.59;1730227;82;21041;-89
2022/02/23 07:05:11;;;;;;;13.78;7.47;;;;;;;5.23;78.57;99390.77;1698396;80;21102;-86
2022/02/23 07:07:39;;;;;;;18.92;7.58;;;;;;;5.24;78.83;99394.64;1699851;84;21039;-89
2022/02/23 07:10:25;;;;;;;18.60;8.98;;;;;;;5.32;78.63;99403.24;1715456;80;21519;-87
2022/02/23 07:12:52;;;;;;;20.30;9.20;;;;;;;5.32;78.59;99398.09;1726762;79;21141;-89
2022/02/23 07:15:22;;;;;;;20.12;9.10;;;;;;;5.44;78.32;99404.13;1677730;80;21135;-84
2022/02/23 07:17:49;;;;;;;20.35;9.38;;;;;;;5.48;77.91;99401.53;1649893;85;21090;-85
2022/02/23 07:20:17;;;;;;;15.60;9.03;;;;;;;5.51;77.67;99396.39;1704727;82;21165;-90
2022/02/23 07:22:45;;;;;;;30.23;9.78;;;;;;;5.54;77.30;99406.69;1740983;80;21563;-89
2022/02/23 07:25:13;;;;;;;15.90;8.30;;;;;;;5.62;77.03;99405.84;1737301;80;21137;-90
2022/02/23 07:27:40;;;;;;;19.40;8.78;;;;;;;5.69;76.30;99420.03;1680975;80;21087;-87
2022/02/23 07:30:11;;;;;;;21.73;9.85;;;;;;;5.77;76.00;99417.02;1677938;85;21004;-93
2022/02/23 07:32:38;;;;;;;21.95;8.35;;;;;;;5.77;76.07;99411.01;1700376;81;21086;-83
2022/02/23 07:35:10;;;;;;;20.12;7.28;;;;;;;5.78;75.63;99423.88;1747511;81;21042;-82
2022/02/23 07:37:37;;;;;;;17.92;7.30;;;;;;;5.84;75.75;99417.02;1740819;81;21006;-83
2022/02/23 07:40:18;;;;;;;15.10;6.70;;;;;;;5.88;75.71;99426.47;1743775;82;21062;-83
2022/02/23 07:42:45;;;;;;;16.10;8.60;;;;;;;5.92;75.67;99432.91;1743643;82;20997;-84
2022/02/23 07:45:12;;;;;;;17.48;7.67;;;;;;;5.93;75.51;99429.48;1744062;82;20994;-83
2022/02/23 07:47:39;;;;;;;20.92;8.35;;;;;;;5.91;74.76;99441.96;1733971;82;21012;-84
2022/02/23 07:50:11;;;;;;;21.33;8.28;;;;;;;5.95;74.91;99443.27;1746304;82;21093;-83
2022/02/23 07:52:36;;;;;;;25.08;8.70;;;;;;;5.94;74.60;99435.05;1744908;82;21062;-84
2022/02/23 07:55:04;;;;;;;19.48;9.10;;;;;;;5.96;74.37;99437.67;1736109;82;20973;-83
2022/02/23 07:57:31;;;;;;;22.20;9.28;;;;;;;5.85;74.29;99437.66;1739355;82;20990;-83
2022/02/23 07:59:58;;;;;;;18.35;8.93;;;;;;;5.84;74.42;99447.98;1736665;82;21031;-84
2022/02/23 08:02:32;;;;;;;23.00;8.83;;;;;;;5.88;74.26;99445.82;1738659;82;21014;-85
2022/02/23 08:04:59;;;;;;;19.57;7.37;;;;;;;5.91;74.42;99440.67;1736870;82;20992;-83
2022/02/23 08:07:25;;;;;;;27.85;9.15;;;;;;;5.96;74.65;99451.87;1744233;82;21027;-84
2022/02/23 08:09:52;;;;;;;16.52;8.03;;;;;;;5.94;74.38;99449.25;1737358;82;21031;-82
2022/02/23 08:12:19;;;;;;;22.98;7.45;;;;;;;5.95;74.27;99447.58;1746154;82;20995;-83
2022/02/23 08:14:45;;;;;;;15.30;8.03;;;;;;;6.07;73.94;99451.84;1742791;81;21549;-82
2022/02/23 08:19:56;;;;;;;14.58;6.87;;;;;;;6.13;71.92;99460.90;1680225;80;21127;-92
2022/02/23 08:22:28;;;;;;;19.05;6.50;;;;;;;6.15;71.22;99448.84;1674009;85;21058;-87
2022/02/23 08:24:52;;;;;;;12.33;7.30;;;;;;;6.24;71.04;99455.70;1678411;82;21055;-84
2022/02/23 08:27:21;;;;;;;19.30;7.67;;;;;;;6.20;70.13;99451.41;1658811;85;21102;-83
2022/02/23 08:29:49;;;;;;;18.00;7.22;;;;;;;6.30;70.76;99450.53;1711700;81;21090;-79
2022/02/23 08:32:18;;;;;;;16.27;5.97;;;;;;;6.37;68.52;99447.08;1737409;82;21508;-79
2022/02/23 08:34:47;;;;;;;11.48;5.15;;;;;;;6.45;68.10;99454.81;1739605;82;21034;-79
2022/02/23 08:37:16;;;;;;;14.87;5.40;;;;;;;6.55;66.55;99459.94;1737658;82;21161;-79
2022/02/23 08:39:43;;;;;;;14.60;4.95;;;;;;;6.63;65.79;99461.21;1733280;82;21047;-81
2022/02/23 08:42:13;;;;;;;10.68;4.60;;;;;;;6.70;64.44;99465.91;1736852;82;21001;-79
2022/02/23 08:44:40;;;;;;;10.68;4.33;;;;;;;6.78;63.10;99464.16;1733084;82;21030;-79
2022/02/23 08:47:07;;;;;;;9.50;4.53;;;;;;;6.85;62.76;99462.42;1732357;82;21002;-80
2022/02/23 08:49:33;;;;;;;11.22;4.80;;;;;;;7.01;63.93;99467.09;1736005;82;21057;-79
2022/02/23 08:52:00;;;;;;;8.43;3.90;;;;;;;7.11;62.73;99454.55;1735555;82;21002;-78
2022/02/23 08:54:27;;;;;;;11.33;3.62;;;;;;;7.16;61.82;99462.70;1725942;82;21008;-79
2022/02/23 08:56:53;;;;;;;10.30;5.15;;;;;;;7.24;60.39;99469.55;1742575;82;21023;-78
2022/02/23 08:59:19;;;;;;;13.00;4.65;;;;;;;7.28;60.40;99469.55;1723377;81;20998;-79
2022/02/23 09:01:47;;;;;;;12.07;4.92;;;;;;;7.39;58.81;99466.03;1727927;82;21033;-79
2022/02/23 09:04:14;;;;;;;9.85;2.98;;;;;;;7.47;59.85;99456.48;1731391;82;21030;-79
2022/02/23 09:06:41;;;;;;;8.78;3.60;;;;;;;7.54;54.65;99469.78;1727419;82;20997;-79
2022/02/23 09:09:13;;;;;;;7.00;2.83;;;;;;;7.57;51.25;99462.87;1728228;82;21004;-79
2022/02/23 09:11:43;;;;;;;9.63;4.33;;;;;;;7.69;49.60;99472.27;1741626;82;21541;-78
2022/02/23 09:14:11;;;;;;;7.53;3.60;;;;;;;7.68;48.29;99460.63;1731541;81;21009;-80
2022/02/23 09:16:44;;;;;;;7.17;3.60;;;;;;;7.67;47.83;99467.55;1730492;82;21077;-81
2022/02/23 09:19:11;;;;;;;9.20;3.47;;;;;;;7.70;47.88;99470.53;1734405;82;21015;-81
2022/02/23 09:21:37;;;;;;;8.55;2.87;;;;;;;7.77;48.39;99460.57;1745530;82;20998;-78
2022/02/23 09:24:06;;;;;;;10.35;2.47;;;;;;;7.73;44.13;99452.41;1739513;82;21040;-78
2022/02/23 09:26:33;;;;;;;4.65;2.30;;;;;;;7.73;43.03;99464.91;1744123;82;21507;-79
2022/02/23 09:29:02;;;;;;;9.25;2.50;;;;;;;7.68;40.25;99460.22;1737394;82;21060;-79
2022/02/23 09:31:28;;;;;;;5.47;2.35;;;;;;;7.68;41.00;99447.28;1730001;83;21015;-79
2022/02/23 09:33:55;;;;;;;5.75;2.00;;;;;;;7.66;40.88;99458.08;1704220;84;20987;-79
2022/02/23 09:36:22;;;;;;;11.95;2.45;;;;;;;7.67;39.26;99464.95;1709276;84;21063;-80
2022/02/23 09:38:51;;;;;;;7.30;2.15;;;;;;;7.72;39.32;99469.67;1724972;82;21095;-80
2022/02/23 09:41:18;;;;;;;6.28;1.87;;;;;;;7.80;41.78;99467.45;1725869;83;21306;-79
2022/02/23 09:43:47;;;;;;;5.55;2.10;;;;;;;7.84;40.42;99467.84;1731571;82;20974;-79
2022/02/23 09:46:21;;;;;;;5.42;2.45;;;;;;;7.91;42.47;99468.23;1729462;83;21067;-78
2022/02/23 09:48:54;;;;;;;12.80;2.12;;;;;;;7.97;42.09;99461.70;1726780;83;21011;-79
2022/02/23 09:51:21;;;;;;;5.63;2.80;;;;;;;8.07;40.49;99460.74;1731163;83;21097;-79
2022/02/23 09:53:49;;;;;;;9.10;2.75;;;;;;;8.15;40.84;99478.80;1725348;83;21725;-80
2022/02/23 09:56:18;;;;;;;8.75;3.83;;;;;;;8.26;42.71;99477.43;1725071;83;21532;-79
2022/02/23 09:58:46;;;;;;;14.87;5.15;;;;;;;8.37;45.73;99465.20;1728292;83;22339;-79
2022/02/23 10:01:14;;;;;;;10.50;3.47;;;;;;;8.33;47.13;99489.43;1728869;83;21084;-80
2022/02/23 10:03:44;;;;;;;13.85;3.95;;;;;;;8.39;46.95;99483.34;1719193;83;21024;-79
2022/02/23 10:06:30;;;;;;;9.70;2.62;;;;;;;8.45;41.65;99480.27;1722735;83;21062;-79
2022/02/23 10:09:12;;;;;;;6.12;2.55;;;;;;;8.36;39.63;99481.20;1675363;83;21011;-79
2022/02/23 10:11:42;;;;;;;10.75;3.35;;;;;;;8.40;40.19;99475.55;1726441;81;21120;-80
2022/02/23 10:14:12;;;;;;;6.08;2.70;;;;;;;8.45;39.73;99474.23;1730636;82;21463;-79
2022/02/23 10:16:42;;;;;;;12.28;3.40;;;;;;;8.43;40.07;99485.91;1728480;83;21120;-79
2022/02/23 10:19:17;;;;;;;11.15;3.15;;;;;;;8.46;39.82;99503.17;1694227;84;21068;-80
2022/02/23 10:21:57;;;;;;;13.65;3.83;;;;;;;8.54;40.12;99489.25;1697967;84;21551;-79
2022/02/23 10:24:34;;;;;;;8.65;2.98;;;;;;;8.63;40.46;99482.25;1714795;83;21032;-80
2022/02/23 10:27:14;;;;;;;8.58;2.72;;;;;;;8.71;39.60;99498.57;1727677;83;21026;-79
2022/02/23 10:29:54;;;;;;;6.90;2.62;;;;;;;8.78;40.24;99497.64;1711606;82;21578;-79
2022/02/23 10:32:24;;;;;;;8.45;2.80;;;;;;;8.84;40.37;99498.86;1740386;82;20970;-78
2022/02/23 10:34:55;;;;;;;9.38;3.17;;;;;;;8.56;40.25;99500.45;1725484;82;20981;-79
2022/02/23 10:37:24;;;;;;;5.90;2.83;;;;;;;8.47;41.10;99508.31;1734906;81;21032;-81
2022/02/23 10:39:56;;;;;;;16.42;4.85;;;;;;;8.53;40.95;99516.47;1742597;82;21037;-78
2022/02/23 10:42:26;;;;;;;13.15;4.50;;;;;;;8.45;41.90;99513.09;1731576;82;21497;-79
2022/02/23 10:44:56;;;;;;;11.68;4.53;;;;;;;8.24;41.07;99513.70;1739850;82;21073;-79
2022/02/23 10:47:32;;;;;;;16.85;6.20;;;;;;;8.05;41.91;99507.80;1724681;82;21048;-80
2022/02/23 10:50:12;;;;;;;11.53;3.08;;;;;;;7.99;42.25;99500.09;1734264;82;21093;-79
2022/02/23 10:52:57;;;;;;;15.88;3.75;;;;;;;7.89;43.09;99504.48;1730225;82;21020;-79
2022/02/23 10:55:28;;;;;;;10.48;3.70;;;;;;;7.75;43.56;99507.61;1731067;82;21028;-78
2022/02/23 10:57:58;;;;;;;13.80;3.40;;;;;;;7.70;43.36;99515.41;1733525;82;21053;-80
2022/02/23 11:00:39;;;;;;;10.68;3.12;;;;;;;7.66;43.69;99503.37;1734154;82;21187;-79
2022/02/23 11:03:06;;;;;;;10.48;3.12;;;;;;;7.59;43.47;99499.09;1732111;82;21013;-79
2022/02/23 11:05:33;;;;;;;8.13;2.80;;;;;;;7.46;44.55;99492.27;1734267;82;21037;-79
2022/02/23 11:08:11;;;;;;;10.43;3.70;;;;;;;7.47;44.98;99496.14;1730173;82;21062;-79
2022/02/23 11:10:31;;;;;;;7.25;3.15;;;;;;;7.50;45.47;99500.02;1722890;82;20989;-79
2022/02/23 11:13:00;;;;;;;9.20;3.30;;;;;;;7.56;46.09;99486.19;1739272;82;20993;-79
2022/02/23 11:15:30;;;;;;;10.78;3.15;;;;;;;7.73;45.88;99484.77;1728729;81;20998;-80
2022/02/23 11:17:57;;;;;;;7.75;2.95;;;;;;;7.75;46.25;99483.88;1737841;82;21030;-79
2022/02/23 11:20:29;;;;;;;11.65;3.70;;;;;;;7.81;46.32;99488.59;1729754;81;21044;-77
2022/02/23 11:23:00;;;;;;;10.70;3.20;;;;;;;7.74;46.37;99489.94;1719084;82;21089;-80
2022/02/23 11:25:37;;;;;;;13.58;3.33;;;;;;;7.66;46.50;99481.78;1733728;82;20988;-78
2022/02/23 11:28:21;;;;;;;8.53;3.05;;;;;;;7.61;47.11;99482.27;1728935;82;21007;-78
2022/02/23 11:30:59;;;;;;;9.83;3.60;;;;;;;7.60;47.32;99486.59;1727197;82;21052;-78
2022/02/23 11:34:01;;;;;;;8.85;3.00;;;;;;;7.53;48.47;99479.73;1717053;83;22157;-79
2022/02/23 11:36:34;;;;;;;12.82;3.60;;;;;;;7.42;47.56;99479.81;1721228;83;21028;-78
2022/02/23 11:39:09;;;;;;;7.60;3.60;;;;;;;7.36;48.66;99487.58;1713000;83;21030;-80
2022/02/23 11:41:39;;;;;;;7.95;3.35;;;;;;;7.24;48.71;99476.89;1677135;85;21053;-79